sensor_id;sensor_type;location;lat;lon;timestamp;temperature;humidity
3202;DHT22;34843;48.744;8.958;2024-02-23T00:00:53;5.00;99.90
3202;DHT22;34843;48.744;8.958;2024-02-23T00:03:19;5.00;99.90
3202;DHT22;34843;48.744;8.958;2024-02-23T00:05:44;5.00;99.90
3202;DHT22;34843;48.744;8.958;2024-02-23T00:08:10;5.00;99.90
3202;DHT22;34843;48.744;8.958;2024-02-23T00:10:35;5.00;99.90
3202;DHT22;34843;48.744;8.958;2024-02-23T00:13:01;5.00;99.90
3202;DHT22;34843;48.744;8.958;2024-02-23T00:15:27;5.00;99.90
3202;DHT22;34843;48.744;8.958;2024-02-23T00:17:52;5.00;99.90
3202;DHT22;34843;48.744;8.958;2024-02-23T00:20:18;5.00;99.90
3202;DHT22;34843;48.744;8.958;2024-02-23T00:22:43;5.00;99.90
3202;DHT22;34843;48.744;8.958;2024-02-23T00:25:09;5.00;99.90
3202;DHT22;34843;48.744;8.958;2024-02-23T00:27:34;5.00;99.90
3202;DHT22;34843;48.744;8.958;2024-02-23T00:30:00;5.10;99.90
3202;DHT22;34843;48.744;8.958;2024-02-23T00:32:25;5.10;99.90
3202;DHT22;34843;48.744;8.958;2024-02-23T00:34:51;5.10;99.90
3202;DHT22;34843;48.744;8.958;2024-02-23T00:37:16;5.10;99.90
3202;DHT22;34843;48.744;8.958;2024-02-23T00:39:42;5.10;99.90
3202;DHT22;34843;48.744;8.958;2024-02-23T00:42:07;5.10;99.90
3202;DHT22;34843;48.744;8.958;2024-02-23T00:44:33;5.10;99.90
3202;DHT22;34843;48.744;8.958;2024-02-23T00:46:58;5.10;99.90
3202;DHT22;34843;48.744;8.958;2024-02-23T00:49:27;5.20;99.90
3202;DHT22;34843;48.744;8.958;2024-02-23T00:51:53;5.10;99.90
3202;DHT22;34843;48.744;8.958;2024-02-23T00:54:19;5.10;99.90
3202;DHT22;34843;48.744;8.958;2024-02-23T00:56:44;5.10;99.90
3202;DHT22;34843;48.744;8.958;2024-02-23T00:59:10;5.10;99.90
3202;DHT22;34843;48.744;8.958;2024-02-23T01:01:35;5.20;99.90
3202;DHT22;34843;48.744;8.958;2024-02-23T01:04:01;5.20;99.90
3202;DHT22;34843;48.744;8.958;2024-02-23T01:06:27;5.10;99.90
3202;DHT22;34843;48.744;8.958;2024-02-23T01:08:53;5.10;99.90
3202;DHT22;34843;48.744;8.958;2024-02-23T01:11:19;5.10;99.90
3202;DHT22;34843;48.744;8.958;2024-02-23T01:13:44;5.10;99.90
3202;DHT22;34843;48.744;8.958;2024-02-23T01:16:10;5.00;99.90
3202;DHT22;34843;48.744;8.958;2024-02-23T01:18:35;5.00;99.90
3202;DHT22;34843;48.744;8.958;2024-02-23T01:21:01;5.00;99.90
3202;DHT22;34843;48.744;8.958;2024-02-23T01:23:26;5.00;99.90
3202;DHT22;34843;48.744;8.958;2024-02-23T01:25:52;5.00;99.90
3202;DHT22;34843;48.744;8.958;2024-02-23T01:28:17;5.00;99.90
3202;DHT22;34843;48.744;8.958;2024-02-23T01:30:43;4.90;99.90
3202;DHT22;34843;48.744;8.958;2024-02-23T01:33:08;4.90;99.90
3202;DHT22;34843;48.744;8.958;2024-02-23T01:35:34;5.00;99.90
3202;DHT22;34843;48.744;8.958;2024-02-23T01:37:59;4.90;99.90
3202;DHT22;34843;48.744;8.958;2024-02-23T01:40:25;4.90;99.90
3202;DHT22;34843;48.744;8.958;2024-02-23T01:43:04;4.90;99.90
3202;DHT22;34843;48.744;8.958;2024-02-23T01:45:31;4.90;99.90
3202;DHT22;34843;48.744;8.958;2024-02-23T01:47:57;4.90;99.90
3202;DHT22;34843;48.744;8.958;2024-02-23T01:50:24;5.00;99.90
3202;DHT22;34843;48.744;8.958;2024-02-23T01:52:50;5.00;99.90
3202;DHT22;34843;48.744;8.958;2024-02-23T01:55:19;5.00;99.90
3202;DHT22;34843;48.744;8.958;2024-02-23T01:57:45;5.00;99.90
3202;DHT22;34843;48.744;8.958;2024-02-23T02:00:16;5.00;99.90
3202;DHT22;34843;48.744;8.958;2024-02-23T02:02:43;5.00;99.90
3202;DHT22;34843;48.744;8.958;2024-02-23T02:05:09;5.00;99.90
3202;DHT22;34843;48.744;8.958;2024-02-23T02:07:35;5.00;99.90
3202;DHT22;34843;48.744;8.958;2024-02-23T02:10:01;5.00;99.90
3202;DHT22;34843;48.744;8.958;2024-02-23T02:12:29;5.00;99.90
3202;DHT22;34843;48.744;8.958;2024-02-23T02:14:54;5.00;99.90
3202;DHT22;34843;48.744;8.958;2024-02-23T02:17:21;5.00;99.90
3202;DHT22;34843;48.744;8.958;2024-02-23T02:19:48;5.00;99.90
3202;DHT22;34843;48.744;8.958;2024-02-23T02:22:13;4.90;99.90
3202;DHT22;34843;48.744;8.958;2024-02-23T02:24:39;5.00;99.90
3202;DHT22;34843;48.744;8.958;2024-02-23T02:27:07;5.00;99.90
3202;DHT22;34843;48.744;8.958;2024-02-23T02:29:34;4.90;99.90
3202;DHT22;34843;48.744;8.958;2024-02-23T02:32:00;4.90;99.90
3202;DHT22;34843;48.744;8.958;2024-02-23T02:34:25;4.90;99.90
3202;DHT22;34843;48.744;8.958;2024-02-23T02:36:51;4.90;99.90
3202;DHT22;34843;48.744;8.958;2024-02-23T02:39:16;4.90;99.90
3202;DHT22;34843;48.744;8.958;2024-02-23T02:41:42;4.90;99.90
3202;DHT22;34843;48.744;8.958;2024-02-23T02:44:07;4.90;99.90
3202;DHT22;34843;48.744;8.958;2024-02-23T02:46:35;4.80;99.90
3202;DHT22;34843;48.744;8.958;2024-02-23T02:49:00;4.80;99.90
3202;DHT22;34843;48.744;8.958;2024-02-23T02:51:26;4.80;99.90
3202;DHT22;34843;48.744;8.958;2024-02-23T02:53:51;4.80;99.90
3202;DHT22;34843;48.744;8.958;2024-02-23T02:56:17;4.70;99.90
3202;DHT22;34843;48.744;8.958;2024-02-23T02:58:43;4.70;99.90
3202;DHT22;34843;48.744;8.958;2024-02-23T03:01:08;4.70;99.90
3202;DHT22;34843;48.744;8.958;2024-02-23T03:03:34;4.70;99.90
3202;DHT22;34843;48.744;8.958;2024-02-23T03:06:00;4.70;99.90
3202;DHT22;34843;48.744;8.958;2024-02-23T03:08:25;4.70;99.90
3202;DHT22;34843;48.744;8.958;2024-02-23T03:10:51;4.60;99.90
3202;DHT22;34843;48.744;8.958;2024-02-23T03:13:17;4.60;99.90
3202;DHT22;34843;48.744;8.958;2024-02-23T03:15:42;4.60;99.90
3202;DHT22;34843;48.744;8.958;2024-02-23T03:18:08;4.60;99.90
3202;DHT22;34843;48.744;8.958;2024-02-23T03:20:35;4.60;99.90
3202;DHT22;34843;48.744;8.958;2024-02-23T03:23:00;4.60;99.90
3202;DHT22;34843;48.744;8.958;2024-02-23T03:25:29;4.50;99.90
3202;DHT22;34843;48.744;8.958;2024-02-23T03:27:54;4.50;99.90
3202;DHT22;34843;48.744;8.958;2024-02-23T03:30:20;4.50;99.90
3202;DHT22;34843;48.744;8.958;2024-02-23T03:32:45;4.50;99.90
3202;DHT22;34843;48.744;8.958;2024-02-23T03:35:12;4.40;99.90
3202;DHT22;34843;48.744;8.958;2024-02-23T03:37:38;4.40;99.90
3202;DHT22;34843;48.744;8.958;2024-02-23T03:40:05;4.30;99.90
3202;DHT22;34843;48.744;8.958;2024-02-23T03:42:30;4.30;99.90
3202;DHT22;34843;48.744;8.958;2024-02-23T03:44:56;4.30;99.90
3202;DHT22;34843;48.744;8.958;2024-02-23T03:47:21;4.30;99.90
3202;DHT22;34843;48.744;8.958;2024-02-23T03:49:47;4.20;99.90
3202;DHT22;34843;48.744;8.958;2024-02-23T03:52:12;4.30;99.90
3202;DHT22;34843;48.744;8.958;2024-02-23T03:54:38;4.30;99.90
3202;DHT22;34843;48.744;8.958;2024-02-23T03:57:04;4.30;99.90
3202;DHT22;34843;48.744;8.958;2024-02-23T03:59:29;4.20;99.90
3202;DHT22;34843;48.744;8.958;2024-02-23T04:01:55;4.20;99.90
3202;DHT22;34843;48.744;8.958;2024-02-23T04:04:21;4.20;99.90
3202;DHT22;34843;48.744;8.958;2024-02-23T04:06:46;4.20;99.90
3202;DHT22;34843;48.744;8.958;2024-02-23T04:09:12;4.20;99.90
3202;DHT22;34843;48.744;8.958;2024-02-23T04:11:38;4.10;99.90
3202;DHT22;34843;48.744;8.958;2024-02-23T04:14:03;4.10;99.90
3202;DHT22;34843;48.744;8.958;2024-02-23T04:16:30;4.10;99.90
3202;DHT22;34843;48.744;8.958;2024-02-23T04:18:56;4.10;99.90
3202;DHT22;34843;48.744;8.958;2024-02-23T04:21:22;4.10;99.90
3202;DHT22;34843;48.744;8.958;2024-02-23T04:23:48;4.10;99.90
3202;DHT22;34843;48.744;8.958;2024-02-23T04:26:14;4.00;99.90
3202;DHT22;34843;48.744;8.958;2024-02-23T04:28:42;4.00;99.90
3202;DHT22;34843;48.744;8.958;2024-02-23T04:31:09;4.00;99.90
3202;DHT22;34843;48.744;8.958;2024-02-23T04:33:35;4.00;99.90
3202;DHT22;34843;48.744;8.958;2024-02-23T04:36:01;4.00;99.90
3202;DHT22;34843;48.744;8.958;2024-02-23T04:38:28;4.00;99.90
3202;DHT22;34843;48.744;8.958;2024-02-23T04:40:54;3.90;99.90
3202;DHT22;34843;48.744;8.958;2024-02-23T04:43:19;3.90;99.90
3202;DHT22;34843;48.744;8.958;2024-02-23T04:45:45;3.90;99.90
3202;DHT22;34843;48.744;8.958;2024-02-23T04:48:10;3.80;99.90
3202;DHT22;34843;48.744;8.958;2024-02-23T04:50:36;3.80;99.90
3202;DHT22;34843;48.744;8.958;2024-02-23T04:53:02;3.70;99.90
3202;DHT22;34843;48.744;8.958;2024-02-23T04:55:28;3.70;99.90
3202;DHT22;34843;48.744;8.958;2024-02-23T04:57:53;3.70;99.90
3202;DHT22;34843;48.744;8.958;2024-02-23T05:00:19;3.60;99.90
3202;DHT22;34843;48.744;8.958;2024-02-23T05:02:45;3.60;99.90
3202;DHT22;34843;48.744;8.958;2024-02-23T05:05:11;3.60;99.90
3202;DHT22;34843;48.744;8.958;2024-02-23T05:07:37;3.60;99.90
3202;DHT22;34843;48.744;8.958;2024-02-23T05:10:03;3.60;99.90
3202;DHT22;34843;48.744;8.958;2024-02-23T05:12:29;3.60;99.90
3202;DHT22;34843;48.744;8.958;2024-02-23T05:14:54;3.50;99.90
3202;DHT22;34843;48.744;8.958;2024-02-23T05:17:20;3.40;99.90
3202;DHT22;34843;48.744;8.958;2024-02-23T05:19:45;3.40;99.90
3202;DHT22;34843;48.744;8.958;2024-02-23T05:22:12;3.20;99.90
3202;DHT22;34843;48.744;8.958;2024-02-23T05:24:37;3.20;99.90
3202;DHT22;34843;48.744;8.958;2024-02-23T05:27:03;3.10;99.90
3202;DHT22;34843;48.744;8.958;2024-02-23T05:29:28;3.10;99.90
3202;DHT22;34843;48.744;8.958;2024-02-23T05:31:54;3.10;99.90
3202;DHT22;34843;48.744;8.958;2024-02-23T05:34:20;3.10;99.90
3202;DHT22;34843;48.744;8.958;2024-02-23T05:36:46;3.10;99.90
3202;DHT22;34843;48.744;8.958;2024-02-23T05:39:13;3.10;99.90
3202;DHT22;34843;48.744;8.958;2024-02-23T05:41:40;3.20;99.90
3202;DHT22;34843;48.744;8.958;2024-02-23T05:44:06;3.10;99.90
3202;DHT22;34843;48.744;8.958;2024-02-23T05:46:32;3.10;99.90
3202;DHT22;34843;48.744;8.958;2024-02-23T05:48:58;3.10;99.90
3202;DHT22;34843;48.744;8.958;2024-02-23T05:51:24;3.10;99.90
3202;DHT22;34843;48.744;8.958;2024-02-23T05:53:49;3.00;99.90
3202;DHT22;34843;48.744;8.958;2024-02-23T05:56:15;3.00;99.90
3202;DHT22;34843;48.744;8.958;2024-02-23T05:58:41;3.00;99.90
3202;DHT22;34843;48.744;8.958;2024-02-23T06:01:06;2.90;99.90
3202;DHT22;34843;48.744;8.958;2024-02-23T06:03:32;2.90;99.90
3202;DHT22;34843;48.744;8.958;2024-02-23T06:05:58;3.00;99.90
3202;DHT22;34843;48.744;8.958;2024-02-23T06:08:23;3.00;99.90
3202;DHT22;34843;48.744;8.958;2024-02-23T06:10:49;3.10;99.90
3202;DHT22;34843;48.744;8.958;2024-02-23T06:13:14;3.10;99.90
3202;DHT22;34843;48.744;8.958;2024-02-23T06:15:40;3.10;99.90
3202;DHT22;34843;48.744;8.958;2024-02-23T06:18:06;3.10;99.90
3202;DHT22;34843;48.744;8.958;2024-02-23T06:20:31;3.10;99.90
3202;DHT22;34843;48.744;8.958;2024-02-23T06:22:57;3.00;99.90
3202;DHT22;34843;48.744;8.958;2024-02-23T06:25:23;3.00;99.90
3202;DHT22;34843;48.744;8.958;2024-02-23T06:27:48;2.90;99.90
3202;DHT22;34843;48.744;8.958;2024-02-23T06:30:14;2.90;99.90
3202;DHT22;34843;48.744;8.958;2024-02-23T06:32:39;2.90;99.90
3202;DHT22;34843;48.744;8.958;2024-02-23T06:35:05;3.00;99.90
3202;DHT22;34843;48.744;8.958;2024-02-23T06:37:32;3.10;99.90
3202;DHT22;34843;48.744;8.958;2024-02-23T06:39:58;3.20;99.90
3202;DHT22;34843;48.744;8.958;2024-02-23T06:42:24;3.30;99.90
3202;DHT22;34843;48.744;8.958;2024-02-23T06:44:49;3.40;99.90
3202;DHT22;34843;48.744;8.958;2024-02-23T06:47:15;3.50;99.90
3202;DHT22;34843;48.744;8.958;2024-02-23T06:49:44;3.60;99.90
3202;DHT22;34843;48.744;8.958;2024-02-23T06:52:10;3.60;99.90
3202;DHT22;34843;48.744;8.958;2024-02-23T06:54:36;3.60;99.90
3202;DHT22;34843;48.744;8.958;2024-02-23T06:57:01;3.70;99.90
3202;DHT22;34843;48.744;8.958;2024-02-23T06:59:28;3.70;99.90
3202;DHT22;34843;48.744;8.958;2024-02-23T07:01:54;3.70;99.90
3202;DHT22;34843;48.744;8.958;2024-02-23T07:04:20;3.70;99.90
3202;DHT22;34843;48.744;8.958;2024-02-23T07:06:45;3.70;99.90
3202;DHT22;34843;48.744;8.958;2024-02-23T07:09:11;3.80;99.90
3202;DHT22;34843;48.744;8.958;2024-02-23T07:11:38;3.80;99.90
3202;DHT22;34843;48.744;8.958;2024-02-23T07:14:04;3.80;99.90
3202;DHT22;34843;48.744;8.958;2024-02-23T07:16:30;3.80;99.90
3202;DHT22;34843;48.744;8.958;2024-02-23T07:18:55;3.90;99.90
3202;DHT22;34843;48.744;8.958;2024-02-23T07:21:22;4.00;99.90
3202;DHT22;34843;48.744;8.958;2024-02-23T07:23:47;4.10;99.90
3202;DHT22;34843;48.744;8.958;2024-02-23T07:26:13;4.10;99.90
3202;DHT22;34843;48.744;8.958;2024-02-23T07:28:38;4.00;99.90
3202;DHT22;34843;48.744;8.958;2024-02-23T07:31:04;4.00;99.90
3202;DHT22;34843;48.744;8.958;2024-02-23T07:33:29;4.00;99.90
3202;DHT22;34843;48.744;8.958;2024-02-23T07:35:55;4.20;99.90
3202;DHT22;34843;48.744;8.958;2024-02-23T07:38:20;4.30;99.90
3202;DHT22;34843;48.744;8.958;2024-02-23T07:40:46;4.40;99.90
3202;DHT22;34843;48.744;8.958;2024-02-23T07:43:11;4.50;99.90
3202;DHT22;34843;48.744;8.958;2024-02-23T07:45:37;4.80;99.90
3202;DHT22;34843;48.744;8.958;2024-02-23T07:48:03;5.20;99.90
3202;DHT22;34843;48.744;8.958;2024-02-23T07:50:29;5.40;99.90
3202;DHT22;34843;48.744;8.958;2024-02-23T07:52:54;5.50;99.90
3202;DHT22;34843;48.744;8.958;2024-02-23T07:55:20;5.60;99.90
3202;DHT22;34843;48.744;8.958;2024-02-23T07:57:45;5.70;99.90
3202;DHT22;34843;48.744;8.958;2024-02-23T08:00:11;5.50;99.90
3202;DHT22;34843;48.744;8.958;2024-02-23T08:02:38;5.50;99.90
3202;DHT22;34843;48.744;8.958;2024-02-23T08:05:03;5.30;99.90
3202;DHT22;34843;48.744;8.958;2024-02-23T08:07:29;5.20;99.90
3202;DHT22;34843;48.744;8.958;2024-02-23T08:09:56;5.10;99.90
3202;DHT22;34843;48.744;8.958;2024-02-23T08:12:22;5.20;99.90
3202;DHT22;34843;48.744;8.958;2024-02-23T08:14:47;5.20;99.90
3202;DHT22;34843;48.744;8.958;2024-02-23T08:17:15;5.20;99.90
3202;DHT22;34843;48.744;8.958;2024-02-23T08:19:41;5.20;99.90
3202;DHT22;34843;48.744;8.958;2024-02-23T08:22:07;5.40;99.90
3202;DHT22;34843;48.744;8.958;2024-02-23T08:24:32;5.70;99.90
3202;DHT22;34843;48.744;8.958;2024-02-23T08:26:58;5.80;99.90
3202;DHT22;34843;48.744;8.958;2024-02-23T08:29:23;6.00;99.90
3202;DHT22;34843;48.744;8.958;2024-02-23T08:31:49;6.10;99.90
3202;DHT22;34843;48.744;8.958;2024-02-23T08:34:14;6.00;99.90
3202;DHT22;34843;48.744;8.958;2024-02-23T08:36:40;5.90;99.90
3202;DHT22;34843;48.744;8.958;2024-02-23T08:39:05;5.70;99.90
3202;DHT22;34843;48.744;8.958;2024-02-23T08:41:32;5.60;99.90
3202;DHT22;34843;48.744;8.958;2024-02-23T08:43:57;5.50;99.90
3202;DHT22;34843;48.744;8.958;2024-02-23T08:46:23;5.30;99.90
3202;DHT22;34843;48.744;8.958;2024-02-23T08:48:48;5.10;99.90
3202;DHT22;34843;48.744;8.958;2024-02-23T08:51:14;5.00;99.90
3202;DHT22;34843;48.744;8.958;2024-02-23T08:53:40;4.80;99.90
3202;DHT22;34843;48.744;8.958;2024-02-23T08:56:08;4.70;99.90
3202;DHT22;34843;48.744;8.958;2024-02-23T08:58:35;4.60;99.90
3202;DHT22;34843;48.744;8.958;2024-02-23T09:01:00;4.70;99.90
3202;DHT22;34843;48.744;8.958;2024-02-23T09:03:26;4.80;99.90
3202;DHT22;34843;48.744;8.958;2024-02-23T09:05:51;4.80;99.90
3202;DHT22;34843;48.744;8.958;2024-02-23T09:08:17;4.90;99.90
3202;DHT22;34843;48.744;8.958;2024-02-23T09:10:42;4.80;99.90
3202;DHT22;34843;48.744;8.958;2024-02-23T09:13:08;4.80;99.90
3202;DHT22;34843;48.744;8.958;2024-02-23T09:15:33;4.80;99.90
3202;DHT22;34843;48.744;8.958;2024-02-23T09:17:59;4.80;99.90
3202;DHT22;34843;48.744;8.958;2024-02-23T09:20:24;4.80;99.90
3202;DHT22;34843;48.744;8.958;2024-02-23T09:22:50;4.90;99.90
3202;DHT22;34843;48.744;8.958;2024-02-23T09:25:16;4.80;99.90
3202;DHT22;34843;48.744;8.958;2024-02-23T09:27:41;4.60;99.90
3202;DHT22;34843;48.744;8.958;2024-02-23T09:30:13;4.60;99.90
3202;DHT22;34843;48.744;8.958;2024-02-23T09:32:38;4.60;99.90
3202;DHT22;34843;48.744;8.958;2024-02-23T09:35:04;4.80;99.90
3202;DHT22;34843;48.744;8.958;2024-02-23T09:37:31;5.00;99.90
3202;DHT22;34843;48.744;8.958;2024-02-23T09:39:56;5.10;99.90
3202;DHT22;34843;48.744;8.958;2024-02-23T09:42:22;5.30;99.90
3202;DHT22;34843;48.744;8.958;2024-02-23T09:44:57;5.60;99.90
3202;DHT22;34843;48.744;8.958;2024-02-23T09:47:28;6.00;99.90
3202;DHT22;34843;48.744;8.958;2024-02-23T09:49:54;5.90;99.90
3202;DHT22;34843;48.744;8.958;2024-02-23T09:52:21;6.00;99.90
3202;DHT22;34843;48.744;8.958;2024-02-23T09:54:47;6.10;99.90
3202;DHT22;34843;48.744;8.958;2024-02-23T09:57:14;6.20;99.90
3202;DHT22;34843;48.744;8.958;2024-02-23T09:59:40;6.30;99.90
3202;DHT22;34843;48.744;8.958;2024-02-23T10:02:08;6.40;99.90
3202;DHT22;34843;48.744;8.958;2024-02-23T10:04:38;6.40;99.90
3202;DHT22;34843;48.744;8.958;2024-02-23T10:07:05;6.30;99.90
3202;DHT22;34843;48.744;8.958;2024-02-23T10:09:31;6.40;99.90
3202;DHT22;34843;48.744;8.958;2024-02-23T10:11:56;6.50;99.90
3202;DHT22;34843;48.744;8.958;2024-02-23T10:14:22;6.20;99.90
3202;DHT22;34843;48.744;8.958;2024-02-23T10:16:48;6.20;99.90
3202;DHT22;34843;48.744;8.958;2024-02-23T10:19:21;6.10;99.90
3202;DHT22;34843;48.744;8.958;2024-02-23T10:21:47;5.90;99.90
3202;DHT22;34843;48.744;8.958;2024-02-23T10:24:15;6.00;99.90
3202;DHT22;34843;48.744;8.958;2024-02-23T10:26:41;6.10;99.90
3202;DHT22;34843;48.744;8.958;2024-02-23T10:29:07;6.30;99.90
3202;DHT22;34843;48.744;8.958;2024-02-23T10:31:35;6.50;99.90
3202;DHT22;34843;48.744;8.958;2024-02-23T10:34:08;6.80;99.90
3202;DHT22;34843;48.744;8.958;2024-02-23T10:36:41;6.80;99.90
3202;DHT22;34843;48.744;8.958;2024-02-23T10:39:17;6.70;99.90
3202;DHT22;34843;48.744;8.958;2024-02-23T10:41:56;7.00;99.90
3202;DHT22;34843;48.744;8.958;2024-02-23T10:44:24;7.30;99.90
3202;DHT22;34843;48.744;8.958;2024-02-23T10:46:50;7.50;99.90
3202;DHT22;34843;48.744;8.958;2024-02-23T10:49:17;7.80;99.90
3202;DHT22;34843;48.744;8.958;2024-02-23T10:51:45;8.10;99.90
3202;DHT22;34843;48.744;8.958;2024-02-23T10:54:13;8.40;99.90
3202;DHT22;34843;48.744;8.958;2024-02-23T10:56:39;8.40;99.90
3202;DHT22;34843;48.744;8.958;2024-02-23T10:59:06;8.50;99.90
3202;DHT22;34843;48.744;8.958;2024-02-23T11:01:33;8.60;99.90
3202;DHT22;34843;48.744;8.958;2024-02-23T11:04:01;8.60;99.90
3202;DHT22;34843;48.744;8.958;2024-02-23T11:06:28;8.40;99.90
3202;DHT22;34843;48.744;8.958;2024-02-23T11:08:53;8.10;99.90
3202;DHT22;34843;48.744;8.958;2024-02-23T11:11:19;7.90;99.90
3202;DHT22;34843;48.744;8.958;2024-02-23T11:13:45;7.90;99.90
3202;DHT22;34843;48.744;8.958;2024-02-23T11:16:21;8.10;99.90
3202;DHT22;34843;48.744;8.958;2024-02-23T11:18:47;8.20;99.90
3202;DHT22;34843;48.744;8.958;2024-02-23T11:21:13;8.40;99.90
3202;DHT22;34843;48.744;8.958;2024-02-23T11:23:42;8.50;99.90
3202;DHT22;34843;48.744;8.958;2024-02-23T11:26:12;8.40;99.90
3202;DHT22;34843;48.744;8.958;2024-02-23T11:28:48;8.20;99.90
3202;DHT22;34843;48.744;8.958;2024-02-23T11:31:15;8.30;99.90
3202;DHT22;34843;48.744;8.958;2024-02-23T11:33:51;8.30;99.90
3202;DHT22;34843;48.744;8.958;2024-02-23T11:36:31;8.30;99.90
3202;DHT22;34843;48.744;8.958;2024-02-23T11:38:58;8.20;99.90
3202;DHT22;34843;48.744;8.958;2024-02-23T11:41:25;8.20;99.90
3202;DHT22;34843;48.744;8.958;2024-02-23T11:43:52;8.40;99.90
3202;DHT22;34843;48.744;8.958;2024-02-23T11:46:18;8.30;99.90
3202;DHT22;34843;48.744;8.958;2024-02-23T11:48:44;8.30;99.90
3202;DHT22;34843;48.744;8.958;2024-02-23T11:51:15;8.20;99.90
3202;DHT22;34843;48.744;8.958;2024-02-23T11:53:40;8.10;99.90
3202;DHT22;34843;48.744;8.958;2024-02-23T11:56:06;7.70;99.90
3202;DHT22;34843;48.744;8.958;2024-02-23T11:58:32;7.70;99.90
3202;DHT22;34843;48.744;8.958;2024-02-23T12:00:59;8.10;99.90
3202;DHT22;34843;48.744;8.958;2024-02-23T12:03:30;8.10;99.90
3202;DHT22;34843;48.744;8.958;2024-02-23T12:05:57;8.20;99.90
3202;DHT22;34843;48.744;8.958;2024-02-23T12:08:27;8.20;99.90
3202;DHT22;34843;48.744;8.958;2024-02-23T12:10:56;8.00;99.90
3202;DHT22;34843;48.744;8.958;2024-02-23T12:13:23;8.30;99.90
3202;DHT22;34843;48.744;8.958;2024-02-23T12:15:51;8.60;99.90
3202;DHT22;34843;48.744;8.958;2024-02-23T12:18:17;8.60;99.90
3202;DHT22;34843;48.744;8.958;2024-02-23T12:20:42;8.30;99.90
3202;DHT22;34843;48.744;8.958;2024-02-23T12:23:08;8.30;99.90
3202;DHT22;34843;48.744;8.958;2024-02-23T12:25:35;8.40;99.90
3202;DHT22;34843;48.744;8.958;2024-02-23T12:28:01;8.60;99.90
3202;DHT22;34843;48.744;8.958;2024-02-23T12:30:27;8.80;99.90
3202;DHT22;34843;48.744;8.958;2024-02-23T12:33:03;8.90;99.90
3202;DHT22;34843;48.744;8.958;2024-02-23T12:35:29;8.80;99.90
3202;DHT22;34843;48.744;8.958;2024-02-23T12:37:54;8.40;99.90
3202;DHT22;34843;48.744;8.958;2024-02-23T12:40:20;8.40;99.90
3202;DHT22;34843;48.744;8.958;2024-02-23T12:42:45;8.50;99.90
3202;DHT22;34843;48.744;8.958;2024-02-23T12:45:14;8.30;99.90
3202;DHT22;34843;48.744;8.958;2024-02-23T12:47:39;8.30;99.90
3202;DHT22;34843;48.744;8.958;2024-02-23T12:50:05;8.30;99.90
3202;DHT22;34843;48.744;8.958;2024-02-23T12:52:31;8.40;99.90
3202;DHT22;34843;48.744;8.958;2024-02-23T12:54:56;8.40;99.90
3202;DHT22;34843;48.744;8.958;2024-02-23T12:57:22;8.50;99.90
3202;DHT22;34843;48.744;8.958;2024-02-23T12:59:47;8.50;99.90
3202;DHT22;34843;48.744;8.958;2024-02-23T13:02:13;8.30;99.90
3202;DHT22;34843;48.744;8.958;2024-02-23T13:04:38;8.00;99.90
3202;DHT22;34843;48.744;8.958;2024-02-23T13:07:04;8.00;99.90
3202;DHT22;34843;48.744;8.958;2024-02-23T13:09:29;8.10;99.90
3202;DHT22;34843;48.744;8.958;2024-02-23T13:11:55;8.30;99.90
3202;DHT22;34843;48.744;8.958;2024-02-23T13:14:20;8.30;99.90
3202;DHT22;34843;48.744;8.958;2024-02-23T13:16:46;8.40;99.90
3202;DHT22;34843;48.744;8.958;2024-02-23T13:19:11;8.60;99.90
3202;DHT22;34843;48.744;8.958;2024-02-23T13:21:36;8.80;99.90
3202;DHT22;34843;48.744;8.958;2024-02-23T13:24:02;9.00;99.90
3202;DHT22;34843;48.744;8.958;2024-02-23T13:26:28;9.10;99.90
3202;DHT22;34843;48.744;8.958;2024-02-23T13:28:53;9.10;99.90
3202;DHT22;34843;48.744;8.958;2024-02-23T13:31:20;9.10;99.90
3202;DHT22;34843;48.744;8.958;2024-02-23T13:33:45;9.10;99.90
3202;DHT22;34843;48.744;8.958;2024-02-23T13:36:11;8.90;99.90
3202;DHT22;34843;48.744;8.958;2024-02-23T13:38:37;8.80;99.90
3202;DHT22;34843;48.744;8.958;2024-02-23T13:41:05;8.70;99.90
3202;DHT22;34843;48.744;8.958;2024-02-23T13:43:31;8.60;99.90
3202;DHT22;34843;48.744;8.958;2024-02-23T13:45:56;8.60;99.90
3202;DHT22;34843;48.744;8.958;2024-02-23T13:48:22;8.40;99.90
3202;DHT22;34843;48.744;8.958;2024-02-23T13:50:48;8.50;99.90
3202;DHT22;34843;48.744;8.958;2024-02-23T13:53:14;8.40;99.90
3202;DHT22;34843;48.744;8.958;2024-02-23T13:55:40;8.30;99.90
3202;DHT22;34843;48.744;8.958;2024-02-23T13:58:07;8.30;99.90
3202;DHT22;34843;48.744;8.958;2024-02-23T14:00:33;8.40;99.90
3202;DHT22;34843;48.744;8.958;2024-02-23T14:02:58;8.40;99.90
3202;DHT22;34843;48.744;8.958;2024-02-23T14:05:24;8.20;99.90
3202;DHT22;34843;48.744;8.958;2024-02-23T14:07:51;8.10;99.90
3202;DHT22;34843;48.744;8.958;2024-02-23T14:10:19;8.20;99.90
3202;DHT22;34843;48.744;8.958;2024-02-23T14:12:44;8.30;99.90
3202;DHT22;34843;48.744;8.958;2024-02-23T14:15:10;8.40;99.90
3202;DHT22;34843;48.744;8.958;2024-02-23T14:17:38;8.70;99.90
3202;DHT22;34843;48.744;8.958;2024-02-23T14:20:05;8.80;99.90
3202;DHT22;34843;48.744;8.958;2024-02-23T14:22:31;9.00;99.90
3202;DHT22;34843;48.744;8.958;2024-02-23T14:24:57;9.20;99.90
3202;DHT22;34843;48.744;8.958;2024-02-23T14:27:23;9.00;99.90
3202;DHT22;34843;48.744;8.958;2024-02-23T14:29:49;8.80;99.90
3202;DHT22;34843;48.744;8.958;2024-02-23T14:32:16;8.90;99.90
3202;DHT22;34843;48.744;8.958;2024-02-23T14:34:43;8.80;99.90
3202;DHT22;34843;48.744;8.958;2024-02-23T14:37:08;8.80;99.90
3202;DHT22;34843;48.744;8.958;2024-02-23T14:39:34;9.10;99.90
3202;DHT22;34843;48.744;8.958;2024-02-23T14:42:03;9.00;99.90
3202;DHT22;34843;48.744;8.958;2024-02-23T14:44:29;8.80;99.90
3202;DHT22;34843;48.744;8.958;2024-02-23T14:46:54;8.70;99.90
3202;DHT22;34843;48.744;8.958;2024-02-23T14:49:20;8.60;99.90
3202;DHT22;34843;48.744;8.958;2024-02-23T14:51:45;8.50;99.90
3202;DHT22;34843;48.744;8.958;2024-02-23T14:54:12;8.50;99.90
3202;DHT22;34843;48.744;8.958;2024-02-23T14:56:38;8.50;99.90
3202;DHT22;34843;48.744;8.958;2024-02-23T14:59:05;8.50;99.90
3202;DHT22;34843;48.744;8.958;2024-02-23T15:01:37;8.50;99.90
3202;DHT22;34843;48.744;8.958;2024-02-23T15:04:04;8.40;99.90
3202;DHT22;34843;48.744;8.958;2024-02-23T15:06:30;8.50;99.90
3202;DHT22;34843;48.744;8.958;2024-02-23T15:08:55;8.40;99.90
3202;DHT22;34843;48.744;8.958;2024-02-23T15:11:20;8.50;99.90
3202;DHT22;34843;48.744;8.958;2024-02-23T15:13:47;8.50;99.90
3202;DHT22;34843;48.744;8.958;2024-02-23T15:16:12;8.50;99.90
3202;DHT22;34843;48.744;8.958;2024-02-23T15:18:38;8.50;99.90
3202;DHT22;34843;48.744;8.958;2024-02-23T15:21:04;8.60;99.90
3202;DHT22;34843;48.744;8.958;2024-02-23T15:23:29;8.50;99.90
3202;DHT22;34843;48.744;8.958;2024-02-23T15:25:55;8.30;99.90
3202;DHT22;34843;48.744;8.958;2024-02-23T15:28:20;8.20;99.90
3202;DHT22;34843;48.744;8.958;2024-02-23T15:30:51;8.00;99.90
3202;DHT22;34843;48.744;8.958;2024-02-23T15:33:17;7.90;99.90
3202;DHT22;34843;48.744;8.958;2024-02-23T15:35:42;8.00;99.90
3202;DHT22;34843;48.744;8.958;2024-02-23T15:38:08;8.10;99.90
3202;DHT22;34843;48.744;8.958;2024-02-23T15:40:33;8.20;99.90
3202;DHT22;34843;48.744;8.958;2024-02-23T15:42:59;8.50;99.90
3202;DHT22;34843;48.744;8.958;2024-02-23T15:45:24;8.40;99.90
3202;DHT22;34843;48.744;8.958;2024-02-23T15:47:50;8.30;99.90
3202;DHT22;34843;48.744;8.958;2024-02-23T15:50:15;8.20;99.90
3202;DHT22;34843;48.744;8.958;2024-02-23T15:52:43;8.00;99.90
3202;DHT22;34843;48.744;8.958;2024-02-23T15:55:09;7.70;99.90